Time;durP1;ratioP1;P1;durP2;ratioP2;P2;SDS_P1;SDS_P2;PMS_P1;PMS_P2;Temp;Humidity;BMP_temperature;BMP_pressure;BME280_temperature;BME280_humidity;BME280_pressure;Samples;Min_cycle;Max_cycle;Signal;HPM_P1;HPM_P2
2022/10/10 00:02:21;;;;;;;;;;;;;;;21.62;57.63;101680.84;5014524;28;2930;-62
2022/10/10 00:04:47;;;;;;;;;;;;;;;21.63;57.21;101667.94;5016423;28;2942;-62
2022/10/10 00:07:14;;;;;;;;;;;;;;;21.64;57.36;101678.06;5014855;28;3043;-62
2022/10/10 00:09:40;;;;;;;;;;;;;;;21.62;57.43;101672.19;5020742;28;1907;-62
2022/10/10 00:12:06;;;;;;;;;;;;;;;21.63;57.35;101670.81;5014605;28;2915;-62
2022/10/10 00:14:32;;;;;;;;;;;;;;;21.63;57.16;101672.97;5015487;28;2551;-62
2022/10/10 00:16:59;;;;;;;;;;;;;;;21.62;57.48;101663.56;5014643;28;1630;-62
2022/10/10 00:19:25;;;;;;;;;;;;;;;21.61;57.42;101667.84;5013942;28;2795;-62
2022/10/10 00:21:51;;;;;;;;;;;;;;;21.61;57.50;101667.84;5016535;28;2856;-62
2022/10/10 00:24:18;;;;;;;;;;;;;;;21.62;57.42;101663.56;5016243;28;2556;-62
2022/10/10 00:26:44;;;;;;;;;;;;;;;21.59;57.57;101661.97;5015802;28;2744;-62
2022/10/10 00:29:10;;;;;;;;;;;;;;;21.60;57.30;101654.81;5014280;28;3029;-62
2022/10/10 00:31:37;;;;;;;;;;;;;;;21.60;56.90;101654.81;5017501;28;3268;-62
2022/10/10 00:34:03;;;;;;;;;;;;;;;21.59;57.07;101656.19;5018202;28;2760;-62
2022/10/10 00:36:29;;;;;;;;;;;;;;;21.60;56.89;101649.06;5015400;28;2831;-62
2022/10/10 00:38:56;;;;;;;;;;;;;;;21.59;57.27;101647.53;5018132;28;2744;-62
2022/10/10 00:41:22;;;;;;;;;;;;;;;21.58;57.10;101640.28;5018571;28;2763;-62
2022/10/10 00:44:01;;;;;;;;;;;;;;;21.59;57.34;101641.78;5017370;28;1595;-62
2022/10/10 00:46:27;;;;;;;;;;;;;;;21.57;57.41;101638.03;5016348;28;2899;-62
2022/10/10 00:48:53;;;;;;;;;;;;;;;21.58;57.26;101640.28;5016162;28;2615;-62
2022/10/10 00:51:20;;;;;;;;;;;;;;;21.58;57.50;101628.00;5016230;28;2904;-62
2022/10/10 00:53:47;;;;;;;;;;;;;;;21.57;57.35;101626.50;5017906;28;2599;-62
2022/10/10 00:56:14;;;;;;;;;;;;;;;21.57;57.29;101621.50;5014501;28;2476;-62
2022/10/10 00:58:41;;;;;;;;;;;;;;;21.56;57.16;101625.78;5020002;28;1651;-62
2022/10/10 01:01:07;;;;;;;;;;;;;;;21.56;57.57;101617.13;5016068;28;3043;-62
2022/10/10 01:03:33;;;;;;;;;;;;;;;21.57;57.26;101623.63;5016992;28;3056;-61
2022/10/10 01:06:00;;;;;;;;;;;;;;;21.55;57.38;101618.50;5015522;28;3049;-61
2022/10/10 01:08:26;;;;;;;;;;;;;;;21.56;57.43;101616.38;5016338;28;2742;-62
2022/10/10 01:11:11;;;;;;;;;;;;;;;21.54;57.38;101617.75;5016166;28;3055;-62
2022/10/10 01:13:51;;;;;;;;;;;;;;;21.54;57.28;101611.25;5021420;28;2903;-62
2022/10/10 01:16:21;;;;;;;;;;;;;;;21.51;57.55;101615.44;5015955;28;2738;-62
2022/10/10 01:18:51;;;;;;;;;;;;;;;21.53;57.09;101609.75;5010725;28;2876;-62
2022/10/10 01:21:29;;;;;;;;;;;;;;;21.52;57.27;101608.25;5013932;28;2985;-62
2022/10/10 01:24:14;;;;;;;;;;;;;;;21.51;57.28;101595.25;5014686;28;3307;-62
2022/10/10 01:26:57;;;;;;;;;;;;;;;21.51;57.07;101601.00;5013321;28;3152;-62
2022/10/10 01:29:25;;;;;;;;;;;;;;;21.51;57.25;101601.75;5024546;28;2972;-62
2022/10/10 01:31:53;;;;;;;;;;;;;;;21.50;57.22;101590.84;5023810;28;3119;-62
2022/10/10 01:34:24;;;;;;;;;;;;;;;21.49;57.43;101586.50;5029530;28;3093;-62
2022/10/10 01:36:58;;;;;;;;;;;;;;;21.50;57.23;101590.84;5023195;28;3007;-62
2022/10/10 01:39:34;;;;;;;;;;;;;;;21.50;57.43;101579.34;5014127;28;1636;-62
2022/10/10 01:42:02;;;;;;;;;;;;;;;21.49;57.28;101584.34;5028991;28;2211;-62
2022/10/10 01:44:28;;;;;;;;;;;;;;;21.48;57.20;101579.22;5016180;28;2977;-62
2022/10/10 01:46:54;;;;;;;;;;;;;;;21.48;57.40;101579.97;5014785;28;2852;-62
2022/10/10 01:49:21;;;;;;;;;;;;;;;21.48;57.18;101574.19;5013242;28;1723;-62
2022/10/10 01:52:06;;;;;;;;;;;;;;;21.48;57.33;101573.47;5028887;28;2798;-61
2022/10/10 01:54:36;;;;;;;;;;;;;;;21.47;57.21;101574.84;5013759;28;3023;-62
2022/10/10 01:57:17;;;;;;;;;;;;;;;21.47;57.37;101566.22;5013337;28;2983;-62
2022/10/10 02:00:01;;;;;;;;;;;;;;;21.47;57.03;101566.22;5016526;28;2755;-62
2022/10/10 02:02:32;;;;;;;;;;;;;;;21.46;57.53;101564.69;5014199;28;2908;-62
2022/10/10 02:05:03;;;;;;;;;;;;;;;21.46;57.30;101561.81;5013265;28;2887;-62
2022/10/10 02:07:43;;;;;;;;;;;;;;;21.44;57.27;101555.94;5031467;28;1784;-62
2022/10/10 02:10:09;;;;;;;;;;;;;;;21.43;57.28;101548.72;5016858;28;2950;-62
2022/10/10 02:12:35;;;;;;;;;;;;;;;21.43;57.22;101551.59;5014554;28;2909;-62
2022/10/10 02:15:05;;;;;;;;;;;;;;;21.43;57.28;101549.44;5016733;28;1921;-62
2022/10/10 02:17:32;;;;;;;;;;;;;;;21.43;57.33;101548.72;5004966;28;2632;-62
2022/10/10 02:19:58;;;;;;;;;;;;;;;21.43;57.22;101548.72;5030356;28;2802;-62
2022/10/10 02:22:24;;;;;;;;;;;;;;;21.44;57.02;101538.66;5016410;28;2927;-62
2022/10/10 02:24:51;;;;;;;;;;;;;;;21.42;57.06;101535.69;5031655;28;2773;-62
2022/10/10 02:27:19;;;;;;;;;;;;;;;21.42;57.18;101529.94;5016775;28;2560;-62
2022/10/10 02:29:45;;;;;;;;;;;;;;;21.42;57.13;101533.56;5015496;28;2976;-62
2022/10/10 02:32:18;;;;;;;;;;;;;;;21.41;57.11;101532.03;5017491;28;2714;-62
2022/10/10 02:34:45;;;;;;;;;;;;;;;21.40;56.94;101527.69;5010526;28;2935;-62
2022/10/10 02:37:12;;;;;;;;;;;;;;;21.40;57.20;101521.16;5022586;28;2940;-62
2022/10/10 02:39:42;;;;;;;;;;;;;;;21.41;57.09;101514.03;5030090;28;2397;-62
2022/10/10 02:42:09;;;;;;;;;;;;;;;21.40;57.19;101524.03;5012810;28;2795;-62
2022/10/10 02:44:35;;;;;;;;;;;;;;;21.40;57.31;101521.16;5027620;28;2745;-62
2022/10/10 02:47:02;;;;;;;;;;;;;;;21.40;57.20;101516.16;5028568;28;2957;-62
2022/10/10 02:49:29;;;;;;;;;;;;;;;21.41;57.34;101505.38;5014146;28;2757;-62
2022/10/10 02:51:55;;;;;;;;;;;;;;;21.43;56.99;101514.13;5013473;28;2817;-62
2022/10/10 02:54:21;;;;;;;;;;;;;;;21.44;56.88;101509.84;5015315;28;3284;-62
2022/10/10 02:56:48;;;;;;;;;;;;;;;21.46;56.92;101512.84;5011937;28;2948;-62
2022/10/10 02:59:14;;;;;;;;;;;;;;;21.46;56.96;101502.09;5012945;28;2654;-62
2022/10/10 03:01:40;;;;;;;;;;;;;;;21.48;57.19;101501.41;5015892;28;1730;-62
2022/10/10 03:04:07;;;;;;;;;;;;;;;21.50;57.02;101495.75;5013389;28;2796;-62
2022/10/10 03:06:33;;;;;;;;;;;;;;;21.51;56.91;101491.50;5019425;28;1821;-62
2022/10/10 03:08:59;;;;;;;;;;;;;;;21.50;57.42;101481.34;5015205;28;2381;-62
2022/10/10 03:11:26;;;;;;;;;;;;;;;21.48;57.25;101476.22;5013962;28;2912;-62
2022/10/10 03:13:52;;;;;;;;;;;;;;;21.51;57.54;101479.97;5015210;28;2638;-62
2022/10/10 03:16:18;;;;;;;;;;;;;;;21.50;57.39;101479.22;5016621;28;2687;-62
2022/10/10 03:18:45;;;;;;;;;;;;;;;21.51;57.45;101474.97;5015793;28;2891;-62
2022/10/10 03:21:11;;;;;;;;;;;;;;;21.51;57.18;101471.34;5014917;28;3248;-62
2022/10/10 03:23:37;;;;;;;;;;;;;;;21.52;57.47;101469.94;5012116;28;2720;-62
2022/10/10 03:26:04;;;;;;;;;;;;;;;21.53;57.41;101471.41;5016770;28;2852;-62
2022/10/10 03:28:30;;;;;;;;;;;;;;;21.53;57.09;101471.41;5012964;28;2967;-62
2022/10/10 03:30:56;;;;;;;;;;;;;;;21.56;57.13;101457.88;5014478;28;1647;-62
2022/10/10 03:33:23;;;;;;;;;;;;;;;21.55;57.06;101454.22;5016107;28;2934;-62
2022/10/10 03:35:49;;;;;;;;;;;;;;;21.56;57.40;101452.13;5018025;28;2677;-62
2022/10/10 03:38:15;;;;;;;;;;;;;;;21.55;57.33;101451.34;5013894;28;2884;-62
2022/10/10 03:40:42;;;;;;;;;;;;;;;21.56;57.56;101458.63;5015438;28;2720;-62
2022/10/10 03:43:09;;;;;;;;;;;;;;;21.55;57.64;101451.34;5014878;28;2636;-62
2022/10/10 03:45:35;;;;;;;;;;;;;;;21.57;57.35;101448.56;5020325;28;2634;-62
2022/10/10 03:48:02;;;;;;;;;;;;;;;21.57;57.36;101442.81;5013758;28;2943;-62
2022/10/10 03:50:28;;;;;;;;;;;;;;;21.57;57.53;101442.06;5017592;28;2635;-62
2022/10/10 03:52:54;;;;;;;;;;;;;;;21.58;57.53;101434.91;5016874;28;2877;-62
2022/10/10 03:55:21;;;;;;;;;;;;;;;21.58;57.17;101438.56;5017615;28;2603;-62
2022/10/10 03:57:47;;;;;;;;;;;;;;;21.58;57.15;101424.16;5014189;28;2988;-62
2022/10/10 04:00:13;;;;;;;;;;;;;;;21.59;57.32;101428.50;5022418;28;1671;-62
2022/10/10 04:02:40;;;;;;;;;;;;;;;21.59;57.50;101422.75;5018879;28;2853;-62
2022/10/10 04:05:06;;;;;;;;;;;;;;;21.59;57.06;101419.88;5014969;28;2740;-62
2022/10/10 04:07:33;;;;;;;;;;;;;;;21.58;57.62;101415.50;5013571;28;3110;-62
2022/10/10 04:09:59;;;;;;;;;;;;;;;21.58;57.45;101403.97;5020082;28;2378;-62
2022/10/10 04:12:25;;;;;;;;;;;;;;;21.58;57.25;101409.75;5013361;28;3339;-62
2022/10/10 04:14:52;;;;;;;;;;;;;;;21.59;57.61;101410.47;5013484;28;2892;-62
2022/10/10 04:17:18;;;;;;;;;;;;;;;21.59;57.63;101399.69;5017008;28;2881;-62
2022/10/10 04:19:44;;;;;;;;;;;;;;;21.59;57.42;101411.22;5015870;28;3422;-62
2022/10/10 04:22:11;;;;;;;;;;;;;;;21.60;57.12;101401.19;5017992;28;2749;-62
2022/10/10 04:24:37;;;;;;;;;;;;;;;21.63;57.33;101393.41;5016841;28;2705;-62
2022/10/10 04:27:03;;;;;;;;;;;;;;;21.62;57.26;101386.13;5019227;28;2204;-62
2022/10/10 04:29:30;;;;;;;;;;;;;;;21.62;57.55;101381.09;5017757;28;3367;-61
2022/10/10 04:31:56;;;;;;;;;;;;;;;21.63;57.47;101382.59;5009494;28;2989;-61
2022/10/10 04:34:22;;;;;;;;;;;;;;;21.63;57.44;101368.19;5010634;28;3105;-61
2022/10/10 04:36:49;;;;;;;;;;;;;;;21.64;57.46;101366.78;5016813;28;3146;-61
2022/10/10 04:39:15;;;;;;;;;;;;;;;21.64;57.18;101372.56;5017481;28;2813;-62
2022/10/10 04:41:41;;;;;;;;;;;;;;;21.63;57.52;101370.34;5015306;28;3456;-62
2022/10/10 04:44:08;;;;;;;;;;;;;;;21.64;57.29;101366.06;5017575;28;2736;-62
2022/10/10 04:46:34;;;;;;;;;;;;;;;21.62;57.79;101363.81;5012636;28;3525;-62
2022/10/10 04:49:00;;;;;;;;;;;;;;;21.61;57.35;101356.56;5012504;28;2887;-62
2022/10/10 04:51:27;;;;;;;;;;;;;;;21.63;57.20;101348.03;5009499;28;3089;-62
2022/10/10 04:53:53;;;;;;;;;;;;;;;21.63;57.30;101344.41;5007259;28;2954;-65
2022/10/10 04:56:19;;;;;;;;;;;;;;;21.69;57.40;101345.44;5010829;28;3145;-64
2022/10/10 04:58:46;;;;;;;;;;;;;;;21.70;57.19;101338.28;5016368;28;2748;-65
2022/10/10 05:01:12;;;;;;;;;;;;;;;21.72;57.55;101338.38;5007257;28;3053;-65
2022/10/10 05:03:38;;;;;;;;;;;;;;;21.72;57.15;101337.63;5017462;28;3121;-62
2022/10/10 05:06:05;;;;;;;;;;;;;;;21.72;57.52;101331.88;5010961;28;3290;-67
2022/10/10 05:08:31;;;;;;;;;;;;;;;21.65;57.47;101333.72;5012100;28;2915;-67
2022/10/10 05:10:57;;;;;;;;;;;;;;;21.60;57.59;101326.25;5015095;28;2625;-57
2022/10/10 05:13:24;;;;;;;;;;;;;;;21.43;56.55;101330.47;5012907;28;2923;-66
2022/10/10 05:15:51;;;;;;;;;;;;;;;21.52;57.19;101337.38;5014710;28;3085;-66
2022/10/10 05:18:18;;;;;;;;;;;;;;;21.58;57.14;101329.03;5008039;28;2980;-61
2022/10/10 05:20:46;;;;;;;;;;;;;;;21.61;57.19;101332.78;5013918;28;2838;-65
2022/10/10 05:23:13;;;;;;;;;;;;;;;21.63;57.39;101330.00;5019399;28;1685;-65
2022/10/10 05:25:41;;;;;;;;;;;;;;;21.64;57.30;101331.47;5017034;28;2807;-65
2022/10/10 05:28:08;;;;;;;;;;;;;;;21.64;57.27;101332.22;5016967;28;2788;-65
2022/10/10 05:30:34;;;;;;;;;;;;;;;21.67;57.45;101330.94;5016487;28;2792;-66
2022/10/10 05:33:00;;;;;;;;;;;;;;;21.67;57.38;101336.69;5016708;28;2525;-67
2022/10/10 05:35:27;;;;;;;;;;;;;;;21.69;57.29;101328.16;5017268;28;2640;-65
2022/10/10 05:37:53;;;;;;;;;;;;;;;21.69;57.90;101325.28;5015647;28;2467;-66
2022/10/10 05:40:19;;;;;;;;;;;;;;;21.69;57.34;101328.16;5008323;28;2843;-65
2022/10/10 05:42:46;;;;;;;;;;;;;;;21.69;57.92;101331.03;5012183;28;3165;-65
2022/10/10 05:45:12;;;;;;;;;;;;;;;21.82;57.94;101322.97;5014399;28;3469;-75
2022/10/10 05:47:38;;;;;;;;;;;;;;;22.25;57.59;101322.09;5016108;28;4422;-66
2022/10/10 05:50:05;;;;;;;;;;;;;;;22.55;56.77;101319.84;5017979;28;4467;-68
2022/10/10 05:52:31;;;;;;;;;;;;;;;22.69;56.28;101322.63;5011048;28;4492;-62
2022/10/10 05:54:58;;;;;;;;;;;;;;;22.72;55.31;101315.53;5016808;28;4526;-64
2022/10/10 05:57:24;;;;;;;;;;;;;;;22.80;55.56;101310.13;5021569;28;2992;-66
2022/10/10 05:59:50;;;;;;;;;;;;;;;22.82;55.47;101313.09;5018358;28;4640;-69
2022/10/10 06:02:20;;;;;;;;;;;;;;;22.96;54.57;101315.84;5015059;28;4623;-66
2022/10/10 06:04:46;;;;;;;;;;;;;;;23.03;54.58;101314.75;5011639;28;4838;-67
2022/10/10 06:07:12;;;;;;;;;;;;;;;23.09;54.27;101311.34;5012740;28;4574;-67
2022/10/10 06:09:39;;;;;;;;;;;;;;;23.09;54.07;101320.00;5010606;28;4597;-67
2022/10/10 06:12:05;;;;;;;;;;;;;;;23.10;53.58;101312.84;5011362;28;4050;-66
2022/10/10 06:14:31;;;;;;;;;;;;;;;23.13;54.14;101303.59;5015505;28;2899;-66
2022/10/10 06:16:58;;;;;;;;;;;;;;;23.11;53.67;101312.22;5011910;28;3030;-68
2022/10/10 06:19:24;;;;;;;;;;;;;;;23.02;54.26;101312.50;5015752;28;2888;-67
2022/10/10 06:21:50;;;;;;;;;;;;;;;22.97;54.24;101305.78;5016280;28;3026;-67
2022/10/10 06:24:17;;;;;;;;;;;;;;;23.14;54.06;101305.09;5016993;28;2898;-68
2022/10/10 06:26:43;;;;;;;;;;;;;;;23.12;54.02;101305.00;5013380;28;3095;-68
2022/10/10 06:29:09;;;;;;;;;;;;;;;23.17;53.35;101312.44;5015389;28;3034;-69
2022/10/10 06:31:38;;;;;;;;;;;;;;;23.20;52.92;101310.38;5014810;28;2737;-71
2022/10/10 06:34:04;;;;;;;;;;;;;;;23.17;53.45;101305.94;5012413;28;2899;-70
2022/10/10 06:36:31;;;;;;;;;;;;;;;23.20;53.54;101307.50;5015085;28;3022;-70
2022/10/10 06:38:57;;;;;;;;;;;;;;;23.17;53.53;101308.81;5016718;28;2809;-70
2022/10/10 06:41:23;;;;;;;;;;;;;;;23.25;52.68;101300.50;5010877;28;3149;-67
2022/10/10 06:43:50;;;;;;;;;;;;;;;22.92;51.33;101304.84;5016223;28;3112;-67
2022/10/10 06:46:17;;;;;;;;;;;;;;;23.06;49.03;101304.00;5016142;28;2900;-67
2022/10/10 06:48:43;;;;;;;;;;;;;;;22.94;47.84;101298.44;5017064;28;2749;-69
2022/10/10 06:51:11;;;;;;;;;;;;;;;22.49;47.76;101294.34;5012967;28;3135;-70
2022/10/10 06:53:38;;;;;;;;;;;;;;;22.64;48.93;101292.09;5007726;28;3422;-73
2022/10/10 06:56:04;;;;;;;;;;;;;;;23.02;49.20;101293.03;5014857;28;2911;-70
2022/10/10 06:58:30;;;;;;;;;;;;;;;23.24;49.11;101270.09;5014022;28;2969;-70
2022/10/10 07:00:58;;;;;;;;;;;;;;;23.14;49.18;101272.59;5016719;28;1889;-68
2022/10/10 07:03:24;;;;;;;;;;;;;;;23.10;49.35;101278.19;5015061;28;3283;-69
2022/10/10 07:05:51;;;;;;;;;;;;;;;22.77;48.36;101279.69;5015389;28;3130;-70
2022/10/10 07:08:18;;;;;;;;;;;;;;;22.76;49.38;101267.38;5019102;28;3096;-71
2022/10/10 07:10:45;;;;;;;;;;;;;;;22.71;50.18;101274.38;5011056;28;2950;-71
2022/10/10 07:13:11;;;;;;;;;;;;;;;22.73;50.87;101265.06;5015662;28;2992;-69
2022/10/10 07:15:38;;;;;;;;;;;;;;;22.78;50.78;101273.22;5008836;28;3066;-71
2022/10/10 07:18:04;;;;;;;;;;;;;;;22.96;51.24;101281.94;5013507;28;3203;-73
2022/10/10 07:20:30;;;;;;;;;;;;;;;23.08;50.85;101275.22;5011704;28;3276;-63
2022/10/10 07:22:57;;;;;;;;;;;;;;;23.26;50.17;101261.53;5008258;28;4583;-66
2022/10/10 07:25:23;;;;;;;;;;;;;;;22.48;52.03;101274.81;5007884;28;4794;-72
2022/10/10 07:27:49;;;;;;;;;;;;;;;22.22;52.56;101278.00;5014055;28;2958;-70
2022/10/10 07:30:16;;;;;;;;;;;;;;;22.09;53.78;101276.66;5014976;28;3058;-71
2022/10/10 07:32:42;;;;;;;;;;;;;;;22.09;53.86;101279.53;5006939;28;4373;-73
2022/10/10 07:35:08;;;;;;;;;;;;;;;22.09;53.93;101282.44;5009765;28;2953;-72
2022/10/10 07:37:35;;;;;;;;;;;;;;;22.09;54.20;101276.66;5012955;28;2935;-72
2022/10/10 07:40:01;;;;;;;;;;;;;;;22.13;53.76;101287.66;5007952;28;3229;-72
2022/10/10 07:42:28;;;;;;;;;;;;;;;22.12;54.03;101280.38;5015296;28;2981;-70
2022/10/10 07:44:54;;;;;;;;;;;;;;;22.08;54.13;101289.59;5010500;28;3031;-71
2022/10/10 07:47:20;;;;;;;;;;;;;;;22.12;54.17;101284.00;5000252;28;4454;-72
2022/10/10 07:49:47;;;;;;;;;;;;;;;22.12;54.32;101281.13;5011004;28;2870;-72
2022/10/10 07:52:13;;;;;;;;;;;;;;;22.13;54.24;101282.63;5010120;28;2941;-71
2022/10/10 07:54:39;;;;;;;;;;;;;;;22.12;54.07;101281.13;5006367;28;4329;-71
2022/10/10 07:57:06;;;;;;;;;;;;;;;22.21;54.18;101276.50;5005850;28;4483;-68
2022/10/10 07:59:32;;;;;;;;;;;;;;;22.52;53.71;101272.09;5012192;28;3341;-66
2022/10/10 08:01:58;;;;;;;;;;;;;;;22.57;53.36;101270.88;5011986;28;3651;-69
2022/10/10 08:04:25;;;;;;;;;;;;;;;22.68;53.66;101266.28;5004286;28;2860;-69
2022/10/10 08:06:51;;;;;;;;;;;;;;;22.80;53.21;101258.16;5009721;28;2867;-71
2022/10/10 08:09:18;;;;;;;;;;;;;;;22.68;53.39;101257.63;5010640;28;3057;-73
2022/10/10 08:11:44;;;;;;;;;;;;;;;22.75;53.27;101259.38;5011344;28;2990;-68
2022/10/10 08:14:10;;;;;;;;;;;;;;;22.83;53.36;101258.97;5010785;28;2987;-69
2022/10/10 08:16:39;;;;;;;;;;;;;;;22.84;53.17;101264.09;5009033;28;2966;-69
2022/10/10 08:19:06;;;;;;;;;;;;;;;22.81;53.39;101253.84;5011277;28;3100;-70
2022/10/10 08:21:34;;;;;;;;;;;;;;;22.75;53.65;101254.34;5010817;28;3345;-69
2022/10/10 08:24:01;;;;;;;;;;;;;;;22.86;53.40;101254.75;5009413;28;2965;-71
2022/10/10 08:26:27;;;;;;;;;;;;;;;22.94;53.25;101255.13;5010937;28;3102;-72
2022/10/10 08:28:54;;;;;;;;;;;;;;;22.79;53.10;101256.66;5015883;28;2950;-76
2022/10/10 08:31:20;;;;;;;;;;;;;;;22.85;53.54;101247.50;5010527;28;2985;-69
2022/10/10 08:33:46;;;;;;;;;;;;;;;22.84;53.58;101263.34;5011442;28;3084;-72
2022/10/10 08:36:14;;;;;;;;;;;;;;;22.87;53.52;101257.00;5015975;28;3009;-70
2022/10/10 08:38:40;;;;;;;;;;;;;;;22.95;53.49;101254.47;5017913;28;2286;-69
2022/10/10 08:41:12;;;;;;;;;;;;;;;22.94;53.52;101255.84;5016969;28;2552;-70
2022/10/10 08:43:48;;;;;;;;;;;;;;;22.75;53.33;101259.38;5015678;28;2989;-68
2022/10/10 08:46:26;;;;;;;;;;;;;;;22.94;53.61;101252.97;5020122;28;3120;-75
2022/10/10 08:48:54;;;;;;;;;;;;;;;22.97;53.25;101245.13;5022728;28;2863;-71
2022/10/10 08:51:24;;;;;;;;;;;;;;;22.98;53.19;101235.06;5022944;28;2981;-69
2022/10/10 08:53:50;;;;;;;;;;;;;;;22.93;53.40;101242.81;5018740;28;3571;-78
2022/10/10 08:56:19;;;;;;;;;;;;;;;22.86;53.30;101232.44;5014824;28;2762;-72
2022/10/10 08:58:47;;;;;;;;;;;;;;;22.93;53.83;101230.50;5048869;28;3050;-71
2022/10/10 09:01:14;;;;;;;;;;;;;;;22.90;53.55;101231.84;5031315;28;3077;-72
2022/10/10 09:03:44;;;;;;;;;;;;;;;22.92;53.45;101218.22;5022811;28;2725;-74
2022/10/10 09:06:18;;;;;;;;;;;;;;;22.79;53.80;101222.00;5017926;28;3005;-88
2022/10/10 09:08:48;;;;;;;;;;;;;;;22.74;54.02;101223.97;5021358;28;2876;-82
2022/10/10 09:11:27;;;;;;;;;;;;;;;22.73;53.95;101213.84;5012604;28;2939;-78
2022/10/10 09:13:59;;;;;;;;;;;;;;;22.87;54.17;101207.91;5016745;28;2788;-76
2022/10/10 09:16:32;;;;;;;;;;;;;;;22.93;53.90;101213.19;5014455;28;2990;-75
2022/10/10 09:19:09;;;;;;;;;;;;;;;22.72;53.95;101211.59;5015157;28;2986;-74
2022/10/10 09:21:40;;;;;;;;;;;;;;;22.74;54.37;101209.53;5051208;28;3067;-80
2022/10/10 09:24:09;;;;;;;;;;;;;;;22.90;53.69;101215.25;5021232;28;2978;-78
2022/10/10 09:26:40;;;;;;;;;;;;;;;22.95;53.75;101211.16;5014450;28;3109;-75
2022/10/10 09:29:22;;;;;;;;;;;;;;;22.67;53.78;101210.69;5047308;28;4554;-67
2022/10/10 09:31:53;;;;;;;;;;;;;;;22.34;55.11;101212.19;5010734;28;3154;-67
2022/10/10 09:34:31;;;;;;;;;;;;;;;22.41;55.33;101204.53;5010386;28;4383;-65
2022/10/10 09:36:59;;;;;;;;;;;;;;;22.30;54.68;101206.22;5009814;28;4544;-70
2022/10/10 09:39:36;;;;;;;;;;;;;;;22.17;52.68;101202.06;5012495;28;2930;-70
2022/10/10 09:42:03;;;;;;;;;;;;;;;22.45;53.02;101196.06;5011201;28;2867;-74
2022/10/10 09:44:29;;;;;;;;;;;;;;;22.57;53.74;101198.72;5018055;28;2764;-73
2022/10/10 09:46:56;;;;;;;;;;;;;;;22.82;53.74;101191.81;5045991;28;2980;-70
2022/10/10 09:49:23;;;;;;;;;;;;;;;22.88;53.63;101183.41;5029744;28;3102;-70
2022/10/10 09:51:49;;;;;;;;;;;;;;;22.92;53.55;101189.34;5016456;28;2998;-70
2022/10/10 09:54:16;;;;;;;;;;;;;;;23.04;53.37;101185.50;5019575;28;2808;-66
2022/10/10 09:56:55;;;;;;;;;;;;;;;22.98;53.25;101178.06;5015460;28;2839;-67
2022/10/10 09:59:38;;;;;;;;;;;;;;;22.97;53.28;101182.31;5032425;28;2924;-69
2022/10/10 10:02:14;;;;;;;;;;;;;;;22.98;53.44;101175.16;5012387;28;3038;-69
2022/10/10 10:04:40;;;;;;;;;;;;;;;23.03;53.27;101178.25;5009914;28;3101;-72
2022/10/10 10:07:16;;;;;;;;;;;;;;;23.09;53.39;101184.25;5016421;28;4346;-73
2022/10/10 10:09:45;;;;;;;;;;;;;;;23.05;53.77;101181.22;5045143;28;2877;-71
2022/10/10 10:12:12;;;;;;;;;;;;;;;22.59;53.83;101179.34;5010924;28;3248;-73
2022/10/10 10:14:38;;;;;;;;;;;;;;;22.45;48.47;101178.75;5012337;28;3077;-79
2022/10/10 10:17:12;;;;;;;;;;;;;;;22.21;47.71;101166.13;5013473;28;3133;-69
2022/10/10 10:19:39;;;;;;;;;;;;;;;22.47;48.17;101170.19;5013672;28;3189;-67
2022/10/10 10:22:21;;;;;;;;;;;;;;;22.72;49.90;101174.06;5010320;28;3018;-68
2022/10/10 10:24:52;;;;;;;;;;;;;;;22.86;51.34;101179.69;5009947;28;4380;-73
2022/10/10 10:27:20;;;;;;;;;;;;;;;22.78;51.76;101168.56;5029929;28;2571;-70
2022/10/10 10:29:50;;;;;;;;;;;;;;;22.71;52.34;101164.66;5026880;28;2834;-68
2022/10/10 10:32:30;;;;;;;;;;;;;;;22.80;52.58;101174.41;5011170;28;3947;-68
2022/10/10 10:35:03;;;;;;;;;;;;;;;22.71;49.54;101170.44;5007214;28;4148;-71
2022/10/10 10:37:34;;;;;;;;;;;;;;;22.46;49.45;101162.91;5013280;28;2872;-69
2022/10/10 10:40:19;;;;;;;;;;;;;;;22.65;49.66;101155.00;5008826;28;2913;-67
2022/10/10 10:43:08;;;;;;;;;;;;;;;22.76;50.43;101156.91;5014617;28;2950;-72
2022/10/10 10:45:37;;;;;;;;;;;;;;;22.91;50.88;101147.44;5011958;28;2864;-70
2022/10/10 10:48:08;;;;;;;;;;;;;;;22.82;51.67;101145.63;5027161;28;3449;-75
2022/10/10 10:50:41;;;;;;;;;;;;;;;22.91;51.90;101156.09;5015253;28;2936;-66
2022/10/10 10:53:16;;;;;;;;;;;;;;;22.78;50.06;101133.91;5012749;28;2677;-75
2022/10/10 10:55:48;;;;;;;;;;;;;;;22.73;50.85;101138.03;5021645;28;3011;-78
2022/10/10 10:58:33;;;;;;;;;;;;;;;22.92;51.80;101133.75;5018329;28;3116;-78
2022/10/10 11:01:20;;;;;;;;;;;;;;;23.00;51.21;101131.94;5017992;28;2965;-74
2022/10/10 11:04:09;;;;;;;;;;;;;;;22.97;50.32;101124.56;5014986;28;3004;-79
2022/10/10 11:06:58;;;;;;;;;;;;;;;22.93;50.18;101120.78;5020054;28;2884;-73
2022/10/10 11:09:44;;;;;;;;;;;;;;;22.96;50.64;101125.25;5047864;28;1684;-75
2022/10/10 11:12:20;;;;;;;;;;;;;;;23.06;49.35;101122.78;5037219;28;2817;-77
2022/10/10 11:14:57;;;;;;;;;;;;;;;23.13;49.20;101126.66;5018169;28;2721;-74
2022/10/10 11:17:23;;;;;;;;;;;;;;;23.14;49.49;101128.88;5030825;28;2960;-71
2022/10/10 11:19:55;;;;;;;;;;;;;;;23.14;49.28;101123.09;5024897;28;2362;-76
2022/10/10 11:22:23;;;;;;;;;;;;;;;22.97;49.15;101115.91;5022865;28;2855;-75
2022/10/10 11:25:02;;;;;;;;;;;;;;;22.77;48.17;101120.88;5057403;28;3057;-83
2022/10/10 11:27:41;;;;;;;;;;;;;;;22.50;48.20;101116.91;5019937;28;2613;-73
2022/10/10 11:30:14;;;;;;;;;;;;;;;22.71;49.09;101123.53;5024584;28;2622;-81
2022/10/10 11:32:55;;;;;;;;;;;;;;;22.83;49.44;101121.13;5059184;28;2738;-72
2022/10/10 11:35:23;;;;;;;;;;;;;;;22.90;49.53;101114.19;5025250;28;3006;-72
2022/10/10 11:37:52;;;;;;;;;;;;;;;23.06;49.46;101113.38;5019064;28;2948;-73
2022/10/10 11:40:23;;;;;;;;;;;;;;;23.10;49.86;101122.22;5024779;28;1557;-73
2022/10/10 11:42:51;;;;;;;;;;;;;;;23.12;49.53;101116.50;5022301;28;2792;-77
2022/10/10 11:45:19;;;;;;;;;;;;;;;23.12;49.83;101113.63;5023140;28;3017;-79
2022/10/10 11:47:55;;;;;;;;;;;;;;;23.14;49.99;101107.94;5020538;28;2630;-77
2022/10/10 11:50:22;;;;;;;;;;;;;;;23.14;50.23;101099.25;5019902;28;2986;-74
2022/10/10 11:52:50;;;;;;;;;;;;;;;23.20;50.35;101096.59;5060446;28;2975;-83
2022/10/10 11:55:18;;;;;;;;;;;;;;;23.23;50.18;101098.16;5021450;28;2907;-77
2022/10/10 11:57:47;;;;;;;;;;;;;;;23.15;50.71;101101.47;5022428;28;3056;-77
2022/10/10 12:00:13;;;;;;;;;;;;;;;23.13;51.11;101098.50;5029319;28;3049;-78
2022/10/10 12:02:40;;;;;;;;;;;;;;;23.21;51.10;101098.81;5024745;28;3026;-76
2022/10/10 12:05:17;;;;;;;;;;;;;;;23.21;50.87;101093.03;5059006;28;3056;-75
2022/10/10 12:07:58;;;;;;;;;;;;;;;23.22;51.14;101093.78;5029862;28;1584;-77
2022/10/10 12:10:35;;;;;;;;;;;;;;;23.24;51.43;101090.97;5060408;28;3066;-74
2022/10/10 12:13:08;;;;;;;;;;;;;;;23.27;51.48;101080.22;5027481;28;2879;-79
2022/10/10 12:15:35;;;;;;;;;;;;;;;23.30;51.43;101093.38;5025349;28;2957;-75
2022/10/10 12:18:21;;;;;;;;;;;;;;;23.25;50.56;101091.72;5028008;28;2945;-69
2022/10/10 12:20:47;;;;;;;;;;;;;;;23.14;49.31;101088.44;5014154;28;2993;-73
2022/10/10 12:23:19;;;;;;;;;;;;;;;23.20;48.57;101087.91;5013164;28;3033;-76
2022/10/10 12:25:46;;;;;;;;;;;;;;;23.24;48.07;101087.34;5020641;28;2906;-80
2022/10/10 12:28:12;;;;;;;;;;;;;;;23.20;47.18;101096.59;5017549;28;3035;-74
2022/10/10 12:30:51;;;;;;;;;;;;;;;23.09;46.94;101088.94;5022220;28;2986;-77
2022/10/10 12:33:32;;;;;;;;;;;;;;;23.04;47.14;101090.19;5006532;28;2992;-75
2022/10/10 12:36:20;;;;;;;;;;;;;;;23.01;46.66;101086.47;5017331;28;3041;-82
2022/10/10 12:39:06;;;;;;;;;;;;;;;22.58;46.70;101094.13;5018056;28;3211;-70
2022/10/10 12:41:45;;;;;;;;;;;;;;;22.47;45.24;101095.16;5021463;28;2804;-79
2022/10/10 12:44:22;;;;;;;;;;;;;;;22.44;45.21;101095.72;5020306;28;3366;-68
2022/10/10 12:47:07;;;;;;;;;;;;;;;22.38;45.51;101091.19;5019695;28;2895;-74
2022/10/10 12:49:34;;;;;;;;;;;;;;;22.32;45.71;101084.41;5009270;28;2812;-73
2022/10/10 12:52:02;;;;;;;;;;;;;;;22.40;45.41;101084.00;5011241;28;2963;-76
2022/10/10 12:54:30;;;;;;;;;;;;;;;22.39;45.80;101077.50;5014115;28;2765;-74
2022/10/10 12:57:08;;;;;;;;;;;;;;;22.40;46.74;101073.19;5012069;28;2963;-71
2022/10/10 12:59:34;;;;;;;;;;;;;;;22.86;46.12;101064.94;5028674;28;3001;-64